Time;durP1;ratioP1;P1;durP2;ratioP2;P2;SDS_P1;SDS_P2;PMS_P1;PMS_P2;Temp;Humidity;BMP_temperature;BMP_pressure;BME280_temperature;BME280_humidity;BME280_pressure;Samples;Min_cycle;Max_cycle;Signal;HPM_P1;HPM_P2
2021/05/23 00:02:07;;;;;;;4.35;1.23;;;;;;;6.74;100.00;97230.28;4951164;28;20065;-82
2021/05/23 00:04:33;;;;;;;3.40;1.30;;;;;;;6.69;100.00;97233.88;5050656;28;20042;-79
2021/05/23 00:07:00;;;;;;;7.85;1.10;;;;;;;6.59;100.00;97220.63;4985294;28;20051;-81
2021/05/23 00:09:27;;;;;;;3.42;1.20;;;;;;;6.64;100.00;97217.03;4985911;28;20124;-81
2021/05/23 00:11:54;;;;;;;5.25;1.50;;;;;;;6.63;100.00;97223.53;4970762;28;20121;-79
2021/05/23 00:14:22;;;;;;;5.28;1.20;;;;;;;6.48;100.00;97205.00;4989575;28;20110;-80
2021/05/23 00:16:49;;;;;;;7.32;1.30;;;;;;;6.47;100.00;97217.66;4982688;28;20474;-81
2021/05/23 00:19:16;;;;;;;8.55;1.25;;;;;;;6.43;100.00;97224.69;4980593;28;20050;-81
2021/05/23 00:21:45;;;;;;;8.55;1.40;;;;;;;6.23;100.00;97244.69;4979119;28;20047;-81
2021/05/23 00:24:12;;;;;;;3.40;1.20;;;;;;;6.24;100.00;97218.63;4966236;28;20066;-81
2021/05/23 00:26:39;;;;;;;2.97;1.13;;;;;;;6.47;100.00;97235.66;4985891;28;20046;-79
2021/05/23 00:29:06;;;;;;;4.78;1.38;;;;;;;6.60;100.00;97245.63;4988722;28;20051;-80
2021/05/23 00:31:33;;;;;;;5.10;1.40;;;;;;;6.60;100.00;97251.81;4971441;28;20054;-82
2021/05/23 00:34:00;;;;;;;6.32;1.48;;;;;;;6.66;100.00;97249.78;4967596;28;20038;-80
2021/05/23 00:36:28;;;;;;;4.22;1.13;;;;;;;6.72;100.00;97251.28;4966343;28;20054;-81
2021/05/23 00:38:56;;;;;;;6.20;1.63;;;;;;;6.88;100.00;97241.84;4966201;28;20043;-82
2021/05/23 00:41:25;;;;;;;5.05;1.60;;;;;;;6.99;100.00;97242.41;4981975;28;20125;-80
2021/05/23 00:43:52;;;;;;;5.78;1.40;;;;;;;6.98;100.00;97236.25;4980455;28;20058;-81
2021/05/23 00:46:19;;;;;;;3.92;1.50;;;;;;;6.95;100.00;97244.09;4978630;28;20063;-81
2021/05/23 00:48:45;;;;;;;5.32;1.17;;;;;;;6.76;100.00;97231.56;4980115;28;20173;-81
2021/05/23 00:51:12;;;;;;;3.30;1.30;;;;;;;6.86;100.00;97238.66;4963287;28;20149;-81
2021/05/23 00:53:41;;;;;;;6.68;1.45;;;;;;;6.85;100.00;97237.03;4979294;28;20049;-79
2021/05/23 00:56:07;;;;;;;5.70;1.92;;;;;;;6.89;100.00;97224.59;4980948;28;20058;-81
2021/05/23 00:58:34;;;;;;;5.10;1.50;;;;;;;6.91;100.00;97227.78;4964144;28;20096;-80
2021/05/23 01:01:44;;;;;;;4.78;1.67;;;;;;;6.85;100.00;97231.66;4980905;28;20561;-80
2021/05/23 01:04:11;;;;;;;6.38;1.60;;;;;;;6.75;100.00;97223.81;4962513;28;20119;-81
2021/05/23 01:06:38;;;;;;;6.22;1.60;;;;;;;6.67;100.00;97228.00;4968169;28;20375;-79
2021/05/23 01:09:08;;;;;;;4.20;1.70;;;;;;;6.68;100.00;97226.09;4964352;28;20456;-81
2021/05/23 01:12:13;;;;;;;4.32;1.42;;;;;;;6.77;100.00;97225.09;5040680;28;20472;-80
2021/05/23 01:14:47;;;;;;;6.53;1.70;;;;;;;6.73;100.00;97212.56;4958775;28;20055;-81
2021/05/23 01:17:15;;;;;;;5.20;1.50;;;;;;;6.82;100.00;97218.81;4943433;28;20273;-81
2021/05/23 01:19:55;;;;;;;8.48;1.58;;;;;;;6.86;100.00;97225.19;4977407;28;20044;-80
2021/05/23 01:22:25;;;;;;;3.85;1.75;;;;;;;6.90;100.00;97208.16;4967308;28;20053;-81
2021/05/23 01:25:10;;;;;;;5.32;1.48;;;;;;;6.83;100.00;97202.38;4982677;28;20046;-81
2021/05/23 01:27:38;;;;;;;5.60;1.10;;;;;;;6.83;100.00;97204.28;4983086;28;20039;-82
2021/05/23 01:30:11;;;;;;;5.88;1.20;;;;;;;6.86;100.00;97193.69;4980634;28;20054;-80
2021/05/23 01:32:41;;;;;;;5.32;1.52;;;;;;;6.93;100.00;97217.50;4965534;28;20035;-80
2021/05/23 01:35:16;;;;;;;3.28;1.52;;;;;;;6.95;100.00;97217.19;4956784;28;20061;-81
2021/05/23 01:37:46;;;;;;;2.92;1.27;;;;;;;6.81;100.00;97215.31;4960018;28;20061;-80
2021/05/23 01:40:16;;;;;;;5.93;1.27;;;;;;;6.83;100.00;97221.22;4989302;28;20076;-80
2021/05/23 01:42:43;;;;;;;2.97;1.40;;;;;;;6.80;100.00;97212.94;4988021;28;20212;-80
2021/05/23 01:45:16;;;;;;;6.47;1.90;;;;;;;6.86;100.00;97215.22;4985902;28;20557;-79
2021/05/23 01:47:44;;;;;;;10.73;2.15;;;;;;;6.79;100.00;97206.75;4965577;28;20046;-81
2021/05/23 01:50:11;;;;;;;5.57;1.95;;;;;;;6.90;100.00;97215.41;4966698;28;20051;-81
2021/05/23 01:52:50;;;;;;;5.70;2.08;;;;;;;6.89;100.00;97214.63;4985188;28;20103;-80
2021/05/23 01:55:18;;;;;;;6.15;2.30;;;;;;;6.84;100.00;97225.47;4986705;28;20053;-80
2021/05/23 01:57:45;;;;;;;6.45;2.30;;;;;;;6.81;100.00;97223.38;4975557;28;20276;-79
2021/05/23 02:00:14;;;;;;;9.65;2.33;;;;;;;6.77;100.00;97221.59;4994714;28;20035;-79
2021/05/23 02:02:44;;;;;;;10.05;2.45;;;;;;;6.80;100.00;97218.31;4993033;28;20061;-79
2021/05/23 02:05:11;;;;;;;5.93;2.28;;;;;;;6.75;100.00;97211.16;5031682;22;20048;-76
2021/05/23 02:07:40;;;;;;;7.22;2.33;;;;;;;6.78;100.00;97196.31;5093996;28;20048;-77
2021/05/23 02:10:14;;;;;;;7.82;2.58;;;;;;;6.68;100.00;97193.84;5074811;28;20039;-78
2021/05/23 02:12:45;;;;;;;8.20;2.50;;;;;;;6.70;100.00;97210.47;5075610;28;20036;-76
2021/05/23 02:15:15;;;;;;;7.95;2.30;;;;;;;6.74;100.00;97200.69;5093017;28;20044;-75
2021/05/23 02:17:45;;;;;;;8.48;2.50;;;;;;;6.85;100.00;97197.50;5075707;28;20093;-77
2021/05/23 02:20:18;;;;;;;9.90;2.70;;;;;;;6.88;100.00;97199.59;5096546;28;20044;-77
2021/05/23 02:22:47;;;;;;;6.95;2.00;;;;;;;6.87;100.00;97197.97;5098442;28;20459;-76
2021/05/23 02:25:19;;;;;;;4.95;2.10;;;;;;;6.96;100.00;97208.03;5094006;28;20056;-77
2021/05/23 02:27:50;;;;;;;6.00;1.92;;;;;;;7.04;100.00;97193.88;5093047;28;20044;-75
2021/05/23 02:30:28;;;;;;;4.82;2.20;;;;;;;6.98;100.00;97197.75;5092051;28;20130;-75
2021/05/23 02:32:55;;;;;;;7.53;2.22;;;;;;;7.05;100.00;97192.75;5074237;28;20043;-75
2021/05/23 02:35:26;;;;;;;5.35;2.13;;;;;;;6.96;100.00;97197.28;5074666;28;20447;-77
2021/05/23 02:37:53;;;;;;;8.93;2.22;;;;;;;7.01;100.00;97187.19;5092241;28;20441;-77
2021/05/23 02:40:22;;;;;;;4.80;2.30;;;;;;;7.00;100.00;97193.66;5091553;28;20070;-77
2021/05/23 02:42:49;;;;;;;6.82;2.50;;;;;;;7.00;100.00;97199.06;5073181;28;20074;-77
2021/05/23 02:45:18;;;;;;;6.63;2.25;;;;;;;6.96;100.00;97203.47;5073906;28;20081;-76
2021/05/23 02:47:49;;;;;;;8.00;2.17;;;;;;;7.07;100.00;97201.34;5073918;28;20040;-76
2021/05/23 02:50:20;;;;;;;4.65;1.52;;;;;;;7.51;100.00;97207.56;5091765;28;20036;-76
2021/05/23 02:52:47;;;;;;;6.78;1.58;;;;;;;7.81;100.00;97207.94;5074263;28;20051;-76
2021/05/23 02:55:16;;;;;;;6.47;1.33;;;;;;;7.90;100.00;97198.81;5091721;28;20135;-75
2021/05/23 02:57:44;;;;;;;5.05;1.10;;;;;;;7.93;100.00;97192.81;5091695;28;20054;-76
2021/05/23 03:00:13;;;;;;;5.53;1.45;;;;;;;7.93;100.00;97192.00;5074022;28;20050;-75
2021/05/23 03:02:40;;;;;;;5.13;1.30;;;;;;;7.97;100.00;97207.28;5091879;28;20483;-76
2021/05/23 03:05:10;;;;;;;7.63;1.20;;;;;;;8.02;100.00;97200.97;5090688;28;20039;-76
2021/05/23 03:07:42;;;;;;;6.82;1.33;;;;;;;7.99;100.00;97202.38;5090730;28;20048;-76
2021/05/23 03:10:15;;;;;;;9.65;1.40;;;;;;;7.90;100.00;97198.81;5091458;28;20340;-76
2021/05/23 03:12:42;;;;;;;7.85;1.38;;;;;;;7.97;100.00;97209.97;5072865;28;20040;-76
2021/05/23 03:15:12;;;;;;;4.68;1.00;;;;;;;7.95;100.00;97220.25;5072829;28;20048;-76
2021/05/23 03:17:40;;;;;;;5.20;1.33;;;;;;;7.89;100.00;97210.72;5072823;28;20146;-75
2021/05/23 03:20:08;;;;;;;4.88;0.90;;;;;;;7.91;100.00;97221.97;5090983;28;20055;-76
2021/05/23 03:22:35;;;;;;;7.43;1.00;;;;;;;8.02;100.00;97225.22;5091496;28;20059;-75
2021/05/23 03:25:07;;;;;;;8.55;1.00;;;;;;;8.02;100.00;97226.00;5074008;28;20040;-76
2021/05/23 03:27:34;;;;;;;3.83;1.23;;;;;;;7.99;100.00;97232.00;5072956;28;20052;-76
2021/05/23 03:30:00;;;;;;;3.90;0.98;;;;;;;8.05;100.00;97228.06;5090004;28;20067;-76
2021/05/23 03:32:27;;;;;;;3.40;0.73;;;;;;;8.14;100.00;97237.03;5090933;28;20048;-76
2021/05/23 03:34:54;;;;;;;5.60;1.15;;;;;;;8.30;100.00;97237.44;5090604;28;20048;-76
2021/05/23 03:37:20;;;;;;;5.28;1.00;;;;;;;8.42;100.00;97232.28;5090520;28;20044;-76
2021/05/23 03:39:47;;;;;;;7.30;1.15;;;;;;;8.52;100.00;97237.38;5090602;28;20044;-76
2021/05/23 03:42:16;;;;;;;6.53;0.98;;;;;;;8.51;100.00;97233.13;5072767;28;20460;-76
2021/05/23 03:44:43;;;;;;;5.28;0.73;;;;;;;8.60;100.00;97243.94;5090045;28;20379;-76
2021/05/23 03:47:09;;;;;;;4.40;0.80;;;;;;;8.74;100.00;97247.31;5072691;28;20059;-77
2021/05/23 03:49:38;;;;;;;9.38;1.00;;;;;;;8.87;100.00;97259.13;5090361;28;20486;-78
2021/05/23 03:52:09;;;;;;;7.25;0.77;;;;;;;8.85;100.00;97264.03;5090590;28;20044;-77
2021/05/23 03:54:36;;;;;;;7.18;1.00;;;;;;;8.87;100.00;97267.22;5072447;28;20445;-77
2021/05/23 03:57:06;;;;;;;5.45;1.08;;;;;;;8.94;100.00;97270.25;5072369;28;20040;-77
2021/05/23 03:59:33;;;;;;;3.45;0.90;;;;;;;9.00;100.00;97274.41;5089592;28;20414;-78
2021/05/23 04:02:00;;;;;;;5.38;1.20;;;;;;;9.04;100.00;97269.97;5072455;28;20040;-77
2021/05/23 04:04:45;;;;;;;3.80;1.00;;;;;;;9.12;100.00;97275.38;5089682;28;20047;-76
2021/05/23 04:07:13;;;;;;;5.63;0.82;;;;;;;9.18;100.00;97273.34;5055695;28;20055;-77
2021/05/23 04:09:43;;;;;;;5.15;1.20;;;;;;;9.27;100.00;97279.53;5089794;28;20379;-76
2021/05/23 04:12:15;;;;;;;3.20;0.90;;;;;;;9.30;100.00;97295.13;5089904;28;20449;-77
2021/05/23 04:14:42;;;;;;;5.68;0.95;;;;;;;9.31;100.00;97291.31;5089240;28;20039;-77
2021/05/23 04:17:08;;;;;;;9.73;0.88;;;;;;;9.44;100.00;97301.22;5071873;28;20044;-77
2021/05/23 04:19:35;;;;;;;3.83;0.80;;;;;;;9.60;100.00;97310.44;5090043;28;20036;-76
2021/05/23 04:22:05;;;;;;;4.32;0.75;;;;;;;9.66;100.00;97311.88;5090751;28;20048;-77
2021/05/23 04:24:34;;;;;;;4.15;1.13;;;;;;;9.77;100.00;97310.47;5072641;28;20475;-76
2021/05/23 04:27:02;;;;;;;3.45;0.80;;;;;;;9.83;100.00;97309.19;5091352;28;20414;-77
2021/05/23 04:29:29;;;;;;;6.57;0.90;;;;;;;9.91;100.00;97313.03;5089938;28;20048;-77
2021/05/23 04:31:55;;;;;;;3.78;0.70;;;;;;;10.04;100.00;97303.94;5091173;28;20063;-78
2021/05/23 04:34:22;;;;;;;4.28;0.70;;;;;;;10.14;100.00;97321.78;5090654;28;20040;-78
2021/05/23 04:36:48;;;;;;;3.53;0.70;;;;;;;10.29;100.00;97319.38;5091954;28;20043;-77
2021/05/23 04:39:15;;;;;;;2.47;0.70;;;;;;;10.55;100.00;97313.94;5072128;28;20066;-77
2021/05/23 04:41:41;;;;;;;3.97;0.90;;;;;;;10.59;100.00;97315.66;5072899;28;20050;-78
2021/05/23 04:44:08;;;;;;;6.88;0.77;;;;;;;10.52;100.00;97326.19;5074206;28;20040;-78
2021/05/23 04:46:35;;;;;;;5.82;0.80;;;;;;;10.52;100.00;97314.56;5048674;28;20048;-78
2021/05/23 04:49:02;;;;;;;4.10;1.00;;;;;;;10.60;100.00;97327.28;5073156;28;20048;-79
2021/05/23 04:51:29;;;;;;;3.70;0.80;;;;;;;10.53;100.00;97326.97;5073455;28;20048;-76
2021/05/23 04:53:55;;;;;;;3.53;0.50;;;;;;;10.50;100.00;97330.34;5076609;28;20512;-78
2021/05/23 04:56:22;;;;;;;4.50;0.90;;;;;;;10.41;100.00;97334.97;5082613;28;20430;-77
2021/05/23 04:58:49;;;;;;;5.38;1.15;;;;;;;10.30;100.00;97331.78;5082810;28;20036;-76
2021/05/23 05:01:15;;;;;;;5.35;0.80;;;;;;;10.22;100.00;97351.53;5071737;28;20044;-79
2021/05/23 05:03:42;;;;;;;3.92;0.80;;;;;;;10.23;100.00;97338.78;5072085;28;20114;-78
2021/05/23 05:06:11;;;;;;;3.35;0.65;;;;;;;10.26;100.00;97344.38;5054256;28;20048;-76
2021/05/23 05:08:38;;;;;;;8.43;0.98;;;;;;;10.28;100.00;97352.16;5072653;28;20041;-77
2021/05/23 05:11:04;;;;;;;2.35;0.60;;;;;;;10.40;100.00;97344.97;5071251;28;20530;-77
2021/05/23 05:13:31;;;;;;;5.18;0.80;;;;;;;10.59;100.00;97336.50;5052582;28;20040;-77
2021/05/23 05:15:57;;;;;;;4.25;0.80;;;;;;;10.83;100.00;97341.41;5053558;28;20040;-75
2021/05/23 05:18:24;;;;;;;3.28;0.82;;;;;;;10.90;100.00;97347.09;5070189;28;20052;-76
2021/05/23 05:20:52;;;;;;;3.42;0.93;;;;;;;10.89;100.00;97350.94;5067941;28;20036;-76
2021/05/23 05:23:20;;;;;;;4.38;1.10;;;;;;;10.82;100.00;97369.59;5090394;28;20048;-76
2021/05/23 05:25:47;;;;;;;3.97;0.98;;;;;;;10.86;100.00;97357.00;5091214;28;20446;-76
2021/05/23 05:28:14;;;;;;;5.35;0.82;;;;;;;10.87;100.00;97359.38;5091088;28;20059;-76
2021/05/23 05:30:41;;;;;;;6.05;1.10;;;;;;;10.88;100.00;97358.28;5091263;28;20488;-76
2021/05/23 05:33:07;;;;;;;3.83;0.68;;;;;;;10.94;100.00;97375.91;5077744;28;20040;-76
2021/05/23 05:35:34;;;;;;;5.28;0.70;;;;;;;10.96;100.00;97371.00;5095085;28;20058;-76
2021/05/23 05:38:01;;;;;;;7.47;0.82;;;;;;;10.83;100.00;97371.97;5094554;28;20079;-79
2021/05/23 05:40:27;;;;;;;3.15;0.88;;;;;;;10.73;100.00;97369.63;5077208;28;20055;-76
2021/05/23 05:42:54;;;;;;;5.15;0.68;;;;;;;10.77;100.00;97367.03;5094350;28;20502;-77
2021/05/23 05:45:21;;;;;;;4.00;0.80;;;;;;;10.75;100.00;97375.50;5075593;28;20040;-77
2021/05/23 05:47:47;;;;;;;6.03;0.90;;;;;;;10.70;100.00;97375.69;5093933;28;20047;-77
2021/05/23 05:50:14;;;;;;;3.72;1.13;;;;;;;10.75;100.00;97367.38;5074853;28;20048;-76
2021/05/23 05:52:40;;;;;;;4.15;0.70;;;;;;;10.68;100.00;97366.28;5075811;28;20043;-75
2021/05/23 05:55:08;;;;;;;2.50;0.90;;;;;;;10.66;100.00;97366.59;5092617;28;20678;-76
2021/05/23 05:57:34;;;;;;;6.43;0.90;;;;;;;10.68;100.00;97382.53;5074877;28;20044;-76
2021/05/23 06:00:04;;;;;;;5.97;0.90;;;;;;;10.78;100.00;97385.69;5092441;28;20372;-78
2021/05/23 06:02:31;;;;;;;3.60;0.80;;;;;;;10.88;100.00;97373.72;5072136;28;20067;-76
2021/05/23 06:04:57;;;;;;;4.72;1.17;;;;;;;11.07;100.00;97390.41;5093417;28;20299;-76
2021/05/23 06:07:24;;;;;;;5.40;1.02;;;;;;;11.04;100.00;97383.72;5094066;28;20052;-76
2021/05/23 06:09:53;;;;;;;5.18;0.68;;;;;;;11.06;100.00;97396.94;5093344;28;20044;-76
2021/05/23 06:12:20;;;;;;;5.97;1.20;;;;;;;11.06;100.00;97395.03;5093545;28;20119;-75
2021/05/23 06:14:46;;;;;;;8.25;0.82;;;;;;;11.34;100.00;97398.09;5075135;28;20269;-76
2021/05/23 06:17:13;;;;;;;3.60;1.00;;;;;;;11.63;100.00;97400.84;5094088;28;20442;-76
2021/05/23 06:19:40;;;;;;;3.72;0.98;;;;;;;11.65;100.00;97393.16;5081777;28;20083;-77
2021/05/23 06:22:07;;;;;;;5.18;0.80;;;;;;;11.58;100.00;97392.91;5073615;28;20482;-77
2021/05/23 06:24:33;;;;;;;4.70;1.05;;;;;;;11.57;100.00;97401.34;5056092;28;20043;-78
2021/05/23 06:27:00;;;;;;;4.57;0.90;;;;;;;11.63;100.00;97408.19;5057592;28;20044;-77
2021/05/23 06:29:26;;;;;;;4.68;1.15;;;;;;;11.74;100.00;97412.91;5055297;28;20045;-75
2021/05/23 06:31:53;;;;;;;5.72;1.23;;;;;;;11.77;100.00;97411.47;5073438;28;20049;-77
2021/05/23 06:34:20;;;;;;;3.40;1.23;;;;;;;11.75;100.00;97405.59;5072116;28;20036;-78
2021/05/23 06:36:46;;;;;;;4.30;0.82;;;;;;;11.62;100.00;97406.56;5071073;28;20307;-78
2021/05/23 06:39:13;;;;;;;5.68;0.60;;;;;;;11.58;100.00;97397.53;5069461;28;20048;-77
2021/05/23 06:41:40;;;;;;;7.55;0.95;;;;;;;11.70;100.00;97400.34;5072959;28;20094;-76
2021/05/23 06:44:06;;;;;;;2.60;0.73;;;;;;;11.98;100.00;97409.59;5036220;28;20565;-77
2021/05/23 06:46:33;;;;;;;3.50;0.73;;;;;;;12.06;100.00;97413.38;5065948;28;20040;-77
2021/05/23 06:48:59;;;;;;;2.95;0.75;;;;;;;12.14;100.00;97416.03;5086563;28;20044;-75
2021/05/23 06:51:26;;;;;;;3.78;0.63;;;;;;;12.18;100.00;97413.47;5080924;28;20036;-77
2021/05/23 06:53:53;;;;;;;2.50;0.60;;;;;;;12.40;100.00;97411.22;5064159;28;20169;-77
2021/05/23 06:56:20;;;;;;;4.60;0.70;;;;;;;12.58;100.00;97411.06;5064127;28;20044;-77
2021/05/23 06:58:46;;;;;;;4.03;0.70;;;;;;;12.89;100.00;97419.56;5064194;28;20032;-76
2021/05/23 07:01:14;;;;;;;5.90;1.00;;;;;;;12.77;100.00;97417.59;5065588;28;20082;-78
2021/05/23 07:03:41;;;;;;;6.50;1.10;;;;;;;12.44;100.00;97403.97;5091963;28;20044;-77
2021/05/23 07:06:07;;;;;;;4.82;0.85;;;;;;;12.57;100.00;97426.53;5091373;28;20048;-78
2021/05/23 07:08:34;;;;;;;4.82;0.80;;;;;;;12.73;100.00;97426.72;5082049;28;20052;-76
2021/05/23 07:11:01;;;;;;;5.97;1.25;;;;;;;12.61;100.00;97432.13;5072016;28;20047;-76
2021/05/23 07:13:27;;;;;;;4.00;0.90;;;;;;;12.40;100.00;97435.63;5053229;28;20507;-76
2021/05/23 07:15:54;;;;;;;4.45;1.20;;;;;;;12.52;100.00;97446.56;5071606;28;20048;-77
2021/05/23 07:18:23;;;;;;;6.03;0.98;;;;;;;12.48;100.00;97442.13;5072074;28;20396;-75
2021/05/23 07:20:51;;;;;;;2.55;0.90;;;;;;;12.66;100.00;97438.16;5071981;28;20040;-78
2021/05/23 07:23:18;;;;;;;2.92;0.82;;;;;;;12.93;100.00;97444.94;5071620;28;20055;-77
2021/05/23 07:25:45;;;;;;;3.17;0.80;;;;;;;13.30;100.00;97449.38;5071447;28;20053;-77
2021/05/23 07:28:12;;;;;;;6.07;1.08;;;;;;;13.47;100.00;97451.88;5072414;28;20094;-77
2021/05/23 07:30:40;;;;;;;3.10;0.95;;;;;;;13.44;100.00;97457.22;5071522;28;20049;-77
2021/05/23 07:33:06;;;;;;;4.10;0.90;;;;;;;13.78;100.00;97466.91;5071814;28;20080;-76
2021/05/23 07:35:33;;;;;;;3.35;0.65;;;;;;;13.48;100.00;97461.63;5053891;28;20050;-77
2021/05/23 07:37:59;;;;;;;3.05;0.80;;;;;;;13.34;100.00;97474.78;5071967;28;20048;-77
2021/05/23 07:40:26;;;;;;;2.58;0.63;;;;;;;13.86;100.00;97464.03;5053944;28;20123;-78
2021/05/23 07:42:53;;;;;;;4.03;1.00;;;;;;;13.77;100.00;97471.53;5044436;28;20036;-78
2021/05/23 07:45:20;;;;;;;3.53;0.80;;;;;;;13.61;100.00;97468.69;5080129;28;20041;-79
2021/05/23 07:47:46;;;;;;;6.95;0.80;;;;;;;13.35;100.00;97464.66;5082379;28;20541;-78
2021/05/23 07:50:13;;;;;;;6.50;1.13;;;;;;;13.53;100.00;97460.63;5080070;28;20388;-77
2021/05/23 07:52:40;;;;;;;5.28;1.00;;;;;;;13.49;100.00;97474.13;5081786;28;20581;-78
2021/05/23 07:55:07;;;;;;;5.07;0.90;;;;;;;13.44;100.00;97473.53;5079377;28;20036;-77
2021/05/23 07:57:34;;;;;;;4.53;1.08;;;;;;;13.46;100.00;97476.72;5061256;28;20047;-78
2021/05/23 08:00:02;;;;;;;4.47;1.05;;;;;;;13.75;100.00;97468.38;5063235;28;20430;-78
2021/05/23 08:02:30;;;;;;;3.72;0.90;;;;;;;13.55;100.00;97482.84;5080900;28;20051;-77
2021/05/23 08:07:35;;;;;;;4.20;0.85;;;;;;;13.48;100.00;97479.88;4927379;28;20063;-81
2021/05/23 08:10:04;;;;;;;5.57;0.75;;;;;;;13.73;100.00;97478.78;4961589;28;20046;-82
2021/05/23 08:12:32;;;;;;;8.25;1.05;;;;;;;13.86;100.00;97482.31;4952963;28;20051;-82
2021/05/23 08:15:00;;;;;;;4.15;0.90;;;;;;;14.20;100.00;97470.94;5001981;28;20046;-82
2021/05/23 08:17:31;;;;;;;4.15;1.00;;;;;;;14.13;100.00;97470.75;5004415;28;20447;-82
2021/05/23 08:19:58;;;;;;;5.50;0.98;;;;;;;14.63;100.00;97470.34;5004971;28;20082;-80
2021/05/23 08:22:25;;;;;;;4.68;0.90;;;;;;;14.33;100.00;97467.91;5021506;28;20290;-82
2021/05/23 08:24:52;;;;;;;2.47;0.60;;;;;;;14.07;100.00;97480.25;5023747;28;20051;-80
2021/05/23 08:27:19;;;;;;;4.43;0.88;;;;;;;14.13;100.00;97468.03;4984902;28;20086;-81
2021/05/23 08:29:46;;;;;;;3.42;0.75;;;;;;;13.79;100.00;97466.53;4983033;28;20084;-82
2021/05/23 08:32:13;;;;;;;2.67;0.88;;;;;;;13.94;100.00;97475.94;4917939;28;20051;-81
2021/05/23 08:34:42;;;;;;;2.83;0.80;;;;;;;14.34;100.00;97474.16;4983764;28;20047;-80
2021/05/23 08:37:09;;;;;;;4.65;0.90;;;;;;;14.49;100.00;97462.53;4984653;28;20052;-81
2021/05/23 08:39:36;;;;;;;4.85;1.05;;;;;;;14.39;100.00;97465.75;4920297;28;20331;-82
2021/05/23 08:42:03;;;;;;;4.35;1.20;;;;;;;14.65;100.00;97474.31;4919369;28;20043;-81
2021/05/23 08:44:30;;;;;;;2.42;0.90;;;;;;;14.62;100.00;97466.84;4998823;28;20052;-82
2021/05/23 08:47:00;;;;;;;3.08;0.88;;;;;;;14.07;100.00;97462.00;4934729;28;20048;-82
2021/05/23 08:49:28;;;;;;;5.10;0.70;;;;;;;14.09;100.00;97469.84;5015856;28;20067;-81
2021/05/23 08:51:55;;;;;;;5.35;1.10;;;;;;;13.86;100.00;97474.16;4985090;28;20493;-81
2021/05/23 08:54:22;;;;;;;2.83;0.70;;;;;;;14.20;100.00;97468.22;4983178;28;20147;-81
2021/05/23 08:56:51;;;;;;;2.72;0.75;;;;;;;14.15;100.00;97471.97;5000123;28;20098;-80
2021/05/23 08:59:19;;;;;;;2.88;0.80;;;;;;;14.54;100.00;97469.69;4943468;28;20058;-80
2021/05/23 09:01:46;;;;;;;2.92;0.90;;;;;;;14.76;100.00;97474.63;4940113;28;20509;-81
2021/05/23 09:04:24;;;;;;;3.28;0.80;;;;;;;15.15;100.00;97481.19;5021824;28;20096;-82
2021/05/23 09:07:00;;;;;;;2.70;0.90;;;;;;;15.11;100.00;97486.53;4957446;28;20461;-82
2021/05/23 09:09:27;;;;;;;7.20;0.95;;;;;;;15.45;100.00;97490.56;5040250;28;20118;-81
2021/05/23 09:11:59;;;;;;;2.67;1.02;;;;;;;15.30;100.00;97497.59;5024183;28;20051;-81
2021/05/23 09:14:35;;;;;;;5.15;0.90;;;;;;;15.20;100.00;97500.03;5003390;28;20078;-82
2021/05/23 09:17:05;;;;;;;3.72;0.80;;;;;;;14.82;100.00;97500.47;5005465;28;20092;-83
2021/05/23 09:19:43;;;;;;;2.33;0.73;;;;;;;14.82;100.00;97517.63;5023886;28;20137;-83
2021/05/23 09:22:12;;;;;;;3.15;0.70;;;;;;;14.86;100.00;97507.66;5023910;28;20046;-82
2021/05/23 09:24:53;;;;;;;3.78;1.05;;;;;;;14.41;100.00;97506.25;5038198;28;20108;-80
2021/05/23 09:27:23;;;;;;;1.98;0.65;;;;;;;13.98;100.00;97520.44;5037697;28;20047;-83
2021/05/23 09:30:06;;;;;;;3.35;0.73;;;;;;;14.76;100.00;97510.06;4999875;28;20134;-81
2021/05/23 09:32:45;;;;;;;4.32;0.88;;;;;;;14.56;100.00;97511.00;5001548;28;20063;-83
2021/05/23 09:35:14;;;;;;;5.22;0.70;;;;;;;14.77;100.00;97498.81;5022083;28;20137;-82
2021/05/23 09:37:42;;;;;;;2.88;0.82;;;;;;;15.30;100.00;97500.31;5004181;28;20047;-82
2021/05/23 09:40:17;;;;;;;5.75;0.90;;;;;;;16.24;100.00;97494.91;5019997;28;20138;-81
2021/05/23 09:42:49;;;;;;;2.90;0.73;;;;;;;16.52;100.00;97501.06;5034955;28;20043;-80
2021/05/23 09:45:17;;;;;;;4.72;0.90;;;;;;;16.60;100.00;97499.28;5017799;28;20047;-82
2021/05/23 09:47:56;;;;;;;2.83;0.60;;;;;;;17.02;100.00;97496.66;5018796;28;20051;-81
2021/05/23 09:50:56;;;;;;;2.30;0.80;;;;;;;16.92;89.62;97508.16;5019137;28;20047;-82
2021/05/23 09:53:32;;;;;;;2.63;0.63;;;;;;;17.16;96.02;97516.09;4934345;28;20051;-83
2021/05/23 09:55:59;;;;;;;;;;;;;;;17.04;97.64;97508.81;5019905;28;20043;-83
2021/05/23 09:58:33;;;;;;;2.67;0.60;;;;;;;17.29;91.13;97518.31;5001596;28;20528;-83
2021/05/23 10:01:01;;;;;;;7.95;0.70;;;;;;;16.87;81.86;97511.19;5018511;28;20146;-80
2021/05/23 10:03:30;;;;;;;3.28;0.73;;;;;;;15.67;98.08;97503.66;5017219;28;20052;-81
2021/05/23 10:05:58;;;;;;;1.88;0.65;;;;;;;15.30;100.00;97505.78;5020451;28;20479;-81
2021/05/23 10:08:25;;;;;;;6.32;1.58;;;;;;;15.21;100.00;97507.03;5003550;28;20055;-81
2021/05/23 10:10:53;;;;;;;2.08;0.70;;;;;;;14.93;100.00;97505.13;5020374;28;20086;-82
2021/05/23 10:13:21;;;;;;;2.17;0.63;;;;;;;16.72;100.00;97504.63;5002374;28;20569;-83
2021/05/23 10:15:49;;;;;;;3.78;0.73;;;;;;;18.73;73.80;97500.06;5003805;28;20043;-83
2021/05/23 10:18:19;;;;;;;2.72;0.80;;;;;;;17.95;84.21;97507.06;5022193;28;20142;-81
2021/05/23 10:20:47;;;;;;;4.47;0.88;;;;;;;17.42;85.77;97514.28;4958155;29;20101;-82
2021/05/23 10:23:28;;;;;;;2.65;0.60;;;;;;;17.48;71.29;97519.44;5023497;28;20476;-80
2021/05/23 10:26:28;;;;;;;1.50;0.50;;;;;;;16.05;89.70;97498.34;5024679;28;20043;-80
2021/05/23 10:29:18;;;;;;;2.75;0.52;;;;;;;15.24;100.00;97507.16;5012483;28;20138;-82
2021/05/23 10:31:45;;;;;;;3.55;0.70;;;;;;;15.30;100.00;97511.22;5023775;28;20101;-79
2021/05/23 10:34:12;;;;;;;3.15;0.60;;;;;;;15.76;100.00;97508.94;4955049;28;20077;-81
2021/05/23 10:36:41;;;;;;;1.58;0.50;;;;;;;16.27;93.07;97510.59;5023721;28;20109;-83
2021/05/23 10:39:11;;;;;;;3.05;0.60;;;;;;;17.02;87.42;97507.59;5005928;28;20055;-82
2021/05/23 10:41:43;;;;;;;3.72;0.65;;;;;;;18.49;63.63;97514.19;5036245;28;20051;-80
2021/05/23 10:44:26;;;;;;;1.77;0.70;;;;;;;20.07;50.80;97515.34;5020800;28;20047;-79
2021/05/23 10:46:53;;;;;;;1.83;0.50;;;;;;;21.40;50.29;97500.84;5023000;28;20070;-80
2021/05/23 10:49:20;;;;;;;2.13;0.60;;;;;;;20.84;46.33;97515.13;5022931;28;20077;-81
2021/05/23 10:51:57;;;;;;;3.22;0.65;;;;;;;17.96;56.09;97521.56;5011040;28;20062;-81
2021/05/23 10:54:26;;;;;;;1.27;0.43;;;;;;;17.69;66.65;97528.88;4941913;28;20047;-82
2021/05/23 10:57:04;;;;;;;1.65;0.60;;;;;;;17.44;62.84;97525.66;5010224;28;20058;-80
2021/05/23 10:59:32;;;;;;;2.08;0.63;;;;;;;16.22;78.26;97521.78;5009920;28;20082;-81
2021/05/23 11:02:00;;;;;;;1.88;0.60;;;;;;;16.05;85.48;97542.06;4929116;28;20346;-81
2021/05/23 11:04:36;;;;;;;4.30;0.70;;;;;;;16.96;76.22;97534.44;5015608;28;20062;-80
2021/05/23 11:07:12;;;;;;;1.73;0.50;;;;;;;16.47;87.88;97555.97;5010721;28;20315;-79
2021/05/23 11:09:43;;;;;;;1.52;0.50;;;;;;;15.76;100.00;97566.25;4991468;28;20067;-81
2021/05/23 11:12:13;;;;;;;2.78;0.43;;;;;;;14.98;100.00;97572.22;5005741;28;20040;-82
2021/05/23 11:14:40;;;;;;;2.75;0.50;;;;;;;14.53;100.00;97594.19;5003485;28;20115;-82
2021/05/23 11:17:12;;;;;;;2.90;0.50;;;;;;;13.54;100.00;97579.97;5006185;28;20054;-81
2021/05/23 11:19:38;;;;;;;1.50;0.52;;;;;;;13.06;100.00;97575.09;5003948;28;20047;-81
2021/05/23 11:22:05;;;;;;;3.42;0.50;;;;;;;12.55;100.00;97588.22;5005856;28;20202;-82
2021/05/23 11:24:35;;;;;;;0.80;0.35;;;;;;;12.35;100.00;97590.56;4990857;28;20056;-79
2021/05/23 11:27:18;;;;;;;1.17;0.30;;;;;;;12.29;100.00;97583.72;4941092;28;20059;-81
2021/05/23 11:29:46;;;;;;;2.25;0.40;;;;;;;12.59;100.00;97576.41;5005581;28;20059;-82
2021/05/23 11:32:14;;;;;;;2.45;0.57;;;;;;;13.18;100.00;97568.16;5005837;28;20070;-82
2021/05/23 11:34:42;;;;;;;1.38;0.60;;;;;;;16.53;100.00;97573.72;4985760;28;20159;-83
2021/05/23 11:37:09;;;;;;;2.03;0.45;;;;;;;18.65;90.86;97573.22;4987343;28;20071;-82
2021/05/23 11:39:36;;;;;;;1.77;0.95;;;;;;;20.14;58.50;97566.81;5002748;28;20123;-82
2021/05/23 11:42:04;;;;;;;1.13;0.60;;;;;;;20.42;56.76;97559.63;5004278;28;20082;-83